createdAt,value
2018-12-26T00:00:04.965Z,21.77
2018-12-26T00:02:33.456Z,20.17
2018-12-26T00:05:01.898Z,20.40
2018-12-26T00:07:30.315Z,18.90
2018-12-26T00:09:58.757Z,20.37
2018-12-26T00:12:27.245Z,20.00
2018-12-26T00:14:55.731Z,19.30
2018-12-26T00:17:24.188Z,18.00
2018-12-26T00:19:52.731Z,17.70
2018-12-26T00:22:21.156Z,18.53
2018-12-26T00:24:49.583Z,19.07
2018-12-26T00:27:18.012Z,18.63
2018-12-26T00:29:46.447Z,17.70
2018-12-26T00:32:14.854Z,18.37
2018-12-26T00:34:43.290Z,17.13
2018-12-26T00:37:11.729Z,18.40
2018-12-26T00:39:40.135Z,16.37
2018-12-26T00:42:08.611Z,17.13
2018-12-26T00:44:37.037Z,16.83
2018-12-26T00:47:05.470Z,16.27
2018-12-26T00:49:33.987Z,17.70
2018-12-26T00:52:02.414Z,16.80
2018-12-26T00:54:30.822Z,15.67
2018-12-26T00:56:59.295Z,15.70
2018-12-26T00:59:27.695Z,15.23
2018-12-26T01:01:56.293Z,15.87
2018-12-26T01:04:24.706Z,16.00
2018-12-26T01:06:53.123Z,15.53
2018-12-26T01:09:22.167Z,15.67
2018-12-26T01:11:50.569Z,16.07
2018-12-26T01:14:18.999Z,15.27
2018-12-26T01:16:47.477Z,15.67
2018-12-26T01:19:15.883Z,15.30
2018-12-26T01:21:44.359Z,15.90
2018-12-26T01:24:12.813Z,15.07
2018-12-26T01:26:41.228Z,14.33
2018-12-26T01:29:09.689Z,15.90
2018-12-26T01:31:38.111Z,14.20
2018-12-26T01:34:06.528Z,13.60
2018-12-26T01:36:34.987Z,14.93
2018-12-26T01:39:04.649Z,16.23
2018-12-26T01:41:33.076Z,14.37
2018-12-26T01:44:01.600Z,15.33
2018-12-26T01:46:30.050Z,15.57
2018-12-26T01:48:58.494Z,15.43
2018-12-26T01:51:26.923Z,15.80
2018-12-26T01:53:55.402Z,14.83
2018-12-26T01:56:27.960Z,15.87
2018-12-26T01:58:53.994Z,15.73
2018-12-26T02:01:22.499Z,15.53
2018-12-26T02:03:50.918Z,15.00
2018-12-26T02:06:19.361Z,15.37
2018-12-26T02:08:47.805Z,15.33
2018-12-26T02:11:16.207Z,15.53
2018-12-26T02:13:44.692Z,16.33
2018-12-26T02:16:13.070Z,15.60
2018-12-26T02:18:41.557Z,15.87
2018-12-26T02:21:10.028Z,15.23
2018-12-26T02:23:38.461Z,16.33
2018-12-26T02:26:06.898Z,16.67
2018-12-26T02:28:35.430Z,15.63
2018-12-26T02:31:03.846Z,16.17
2018-12-26T02:33:32.277Z,15.67
2018-12-26T02:36:00.780Z,15.93
2018-12-26T02:38:29.296Z,16.77
2018-12-26T02:40:57.835Z,16.47
2018-12-26T02:43:26.332Z,16.70
2018-12-26T02:45:54.768Z,16.87
2018-12-26T02:48:23.226Z,16.87
2018-12-26T02:50:51.636Z,16.30
2018-12-26T02:53:20.064Z,17.67
2018-12-26T02:55:48.505Z,16.20
2018-12-26T02:58:17.026Z,16.67
2018-12-26T03:00:45.515Z,16.87
2018-12-26T03:03:13.987Z,16.83
2018-12-26T03:05:42.374Z,16.33
2018-12-26T03:08:10.836Z,15.90
2018-12-26T03:10:39.264Z,16.47
2018-12-26T03:13:07.755Z,16.80
2018-12-26T03:15:36.358Z,17.17
2018-12-26T03:18:04.794Z,16.67
2018-12-26T03:20:33.216Z,16.50
2018-12-26T03:23:01.650Z,17.10
2018-12-26T03:25:30.077Z,16.10
2018-12-26T03:27:58.665Z,16.10
2018-12-26T03:30:27.208Z,16.43
2018-12-26T03:32:55.673Z,15.90
2018-12-26T03:35:24.087Z,16.33
2018-12-26T03:37:52.555Z,16.07
2018-12-26T03:40:21.090Z,15.70
2018-12-26T03:42:49.514Z,16.07
2018-12-26T03:45:18.210Z,16.80
2018-12-26T03:47:46.726Z,15.63
2018-12-26T03:50:15.150Z,15.43
2018-12-26T03:52:43.659Z,16.20
2018-12-26T03:55:12.230Z,15.53
2018-12-26T03:57:40.678Z,16.00
2018-12-26T04:00:10.151Z,17.00
2018-12-26T04:02:38.644Z,14.97
2018-12-26T04:05:07.206Z,15.67
2018-12-26T04:07:35.721Z,15.27
2018-12-26T04:10:04.671Z,17.20
2018-12-26T04:12:33.090Z,16.90
2018-12-26T04:15:01.584Z,16.13
2018-12-26T04:17:30.038Z,17.10
2018-12-26T04:19:58.523Z,16.50
2018-12-26T04:22:27.167Z,16.00
2018-12-26T04:24:55.843Z,16.40
2018-12-26T04:27:24.258Z,16.40
2018-12-26T04:29:52.789Z,16.47
2018-12-26T04:32:21.224Z,17.70
2018-12-26T04:34:49.640Z,16.53
2018-12-26T04:37:18.111Z,16.77
2018-12-26T04:39:46.525Z,16.97
2018-12-26T04:42:14.952Z,17.60
2018-12-26T04:44:43.453Z,17.73
2018-12-26T04:47:11.932Z,17.03
2018-12-26T04:49:40.364Z,17.60
2018-12-26T04:52:08.815Z,16.93
2018-12-26T04:54:37.231Z,16.67
2018-12-26T04:57:05.689Z,17.57
2018-12-26T04:59:34.178Z,15.60
2018-12-26T05:02:02.598Z,16.00
2018-12-26T05:04:31.136Z,15.63
2018-12-26T05:06:59.571Z,16.33
2018-12-26T05:09:28.023Z,15.97
2018-12-26T05:11:56.448Z,15.73
2018-12-26T05:14:25.504Z,16.13
2018-12-26T05:16:53.973Z,15.53
2018-12-26T05:19:22.393Z,15.90
2018-12-26T05:21:50.844Z,15.87
2018-12-26T05:24:19.386Z,16.57
2018-12-26T05:26:47.824Z,16.03
2018-12-26T05:29:16.295Z,15.27
2018-12-26T05:31:44.729Z,16.90
2018-12-26T05:34:13.163Z,16.23
2018-12-26T05:36:41.605Z,16.90
2018-12-26T05:39:10.054Z,16.17
2018-12-26T05:41:38.560Z,16.37
2018-12-26T05:44:07.017Z,16.37
2018-12-26T05:46:35.449Z,16.40
2018-12-26T05:49:03.901Z,16.60
2018-12-26T05:51:32.351Z,16.17
2018-12-26T05:54:00.834Z,17.50
2018-12-26T05:56:29.291Z,16.33
2018-12-26T05:58:57.879Z,15.37
2018-12-26T06:01:26.333Z,15.90
2018-12-26T06:03:54.800Z,15.77
2018-12-26T06:06:23.229Z,16.27
2018-12-26T06:08:51.668Z,17.23
2018-12-26T06:11:20.090Z,15.73
2018-12-26T06:13:48.534Z,15.97
2018-12-26T06:16:16.974Z,16.27
2018-12-26T06:18:45.403Z,16.70
2018-12-26T06:21:14.646Z,17.13
2018-12-26T06:23:43.083Z,17.67
2018-12-26T06:26:11.491Z,17.10
2018-12-26T06:28:39.954Z,17.67
2018-12-26T06:31:08.388Z,18.53
2018-12-26T06:33:36.829Z,18.97
2018-12-26T06:36:05.300Z,16.60
2018-12-26T06:38:33.730Z,16.23
2018-12-26T06:41:02.164Z,17.03
2018-12-26T06:43:30.637Z,18.57
2018-12-26T06:45:59.057Z,18.60
2018-12-26T06:48:27.495Z,17.57
2018-12-26T06:50:55.957Z,17.87
2018-12-26T06:53:24.395Z,16.33
2018-12-26T06:55:52.844Z,19.43
2018-12-26T06:58:21.288Z,18.57
2018-12-26T07:00:49.708Z,16.13
2018-12-26T07:03:18.139Z,17.33
2018-12-26T07:05:46.625Z,18.43
2018-12-26T07:08:15.067Z,18.20
2018-12-26T07:10:43.517Z,18.73
2018-12-26T07:13:11.928Z,17.90
2018-12-26T07:15:40.359Z,20.23
2018-12-26T07:18:08.813Z,18.90
2018-12-26T07:20:37.259Z,19.87
2018-12-26T07:23:05.705Z,19.10
2018-12-26T07:25:34.134Z,19.70
2018-12-26T07:28:09.019Z,18.90
2018-12-26T07:30:32.962Z,19.27
2018-12-26T07:33:01.862Z,20.17
2018-12-26T07:35:30.290Z,19.63
2018-12-26T07:37:58.722Z,19.23
2018-12-26T07:40:27.133Z,20.03
2018-12-26T07:42:55.594Z,19.63
2018-12-26T07:45:24.017Z,19.13
2018-12-26T07:47:52.459Z,19.00
2018-12-26T07:50:20.918Z,19.60
2018-12-26T07:52:49.394Z,20.07
2018-12-26T07:55:17.813Z,19.67
2018-12-26T07:57:46.250Z,18.87
2018-12-26T08:00:15.202Z,18.83
2018-12-26T08:02:43.669Z,20.23
2018-12-26T08:05:12.105Z,18.93
2018-12-26T08:07:40.563Z,19.43
2018-12-26T08:10:09.011Z,20.07
2018-12-26T08:12:37.431Z,19.37
2018-12-26T08:15:10.462Z,20.17
2018-12-26T08:17:36.323Z,20.17
2018-12-26T08:20:06.523Z,17.47
2018-12-26T08:22:34.974Z,19.17
2018-12-26T08:25:03.457Z,19.33
2018-12-26T08:27:31.933Z,19.67
2018-12-26T08:30:00.433Z,18.43
2018-12-26T08:32:28.874Z,17.90
2018-12-26T08:34:57.313Z,19.03
2018-12-26T08:37:25.719Z,18.23
2018-12-26T08:39:54.150Z,18.13
2018-12-26T08:42:22.659Z,17.93
2018-12-26T08:44:51.114Z,18.60
2018-12-26T08:47:19.552Z,19.13
2018-12-26T08:49:47.990Z,17.13
2018-12-26T08:52:16.480Z,18.13
2018-12-26T08:54:44.932Z,18.83
2018-12-26T08:57:13.346Z,18.10
2018-12-26T08:59:41.800Z,17.97
2018-12-26T09:02:10.240Z,16.93
2018-12-26T09:04:39.068Z,17.30
2018-12-26T09:07:07.492Z,18.57
2018-12-26T09:09:35.941Z,17.27
2018-12-26T09:12:04.394Z,17.83
2018-12-26T09:14:32.825Z,16.67
2018-12-26T09:17:01.278Z,17.27
2018-12-26T09:19:29.804Z,16.33
2018-12-26T09:21:58.258Z,16.57
2018-12-26T09:24:26.662Z,16.43
2018-12-26T09:26:55.182Z,17.63
2018-12-26T09:29:23.648Z,16.97
2018-12-26T09:31:52.066Z,16.77
2018-12-26T09:34:20.538Z,16.47
2018-12-26T09:36:49.006Z,18.23
2018-12-26T09:39:17.405Z,17.50
2018-12-26T09:41:45.879Z,16.70
2018-12-26T09:44:14.318Z,16.73
2018-12-26T09:46:42.762Z,16.37
2018-12-26T09:49:11.203Z,16.63
2018-12-26T09:51:39.710Z,16.40
2018-12-26T09:54:08.292Z,16.93
2018-12-26T09:56:36.754Z,15.47
2018-12-26T09:59:05.256Z,16.33
2018-12-26T10:01:33.708Z,15.77
2018-12-26T10:04:03.911Z,14.77
2018-12-26T10:06:32.478Z,14.70
2018-12-26T10:09:00.932Z,15.83
2018-12-26T10:11:29.348Z,14.90
2018-12-26T10:13:57.798Z,14.67
2018-12-26T10:16:26.247Z,14.00
2018-12-26T10:18:54.657Z,15.23
2018-12-26T10:21:23.152Z,15.33
2018-12-26T10:23:51.547Z,14.33
2018-12-26T10:26:19.975Z,14.63
2018-12-26T10:28:48.977Z,14.97
2018-12-26T10:31:17.416Z,15.00
2018-12-26T10:33:45.857Z,14.67
2018-12-26T10:36:14.352Z,14.37
2018-12-26T10:38:42.857Z,15.57
2018-12-26T10:41:11.286Z,15.47
2018-12-26T10:43:39.716Z,15.57
2018-12-26T10:46:08.204Z,15.20
2018-12-26T10:48:36.639Z,15.57
2018-12-26T10:51:05.079Z,15.70
2018-12-26T10:53:33.568Z,14.80
2018-12-26T10:56:02.067Z,15.77
2018-12-26T10:58:30.588Z,14.83
2018-12-26T11:01:00.174Z,15.43
2018-12-26T11:03:28.598Z,16.03
2018-12-26T11:05:57.135Z,16.30
2018-12-26T11:08:26.022Z,15.60
2018-12-26T11:10:54.424Z,16.97
2018-12-26T11:13:22.942Z,16.90
2018-12-26T11:15:51.412Z,17.27
2018-12-26T11:18:19.996Z,17.37
2018-12-26T11:20:48.987Z,17.90
2018-12-26T11:23:17.425Z,18.50
2018-12-26T11:25:45.873Z,19.47
2018-12-26T11:28:14.298Z,17.23
2018-12-26T11:30:42.849Z,18.83
2018-12-26T11:33:11.284Z,18.70
2018-12-26T11:35:40.133Z,19.00
2018-12-26T11:38:08.551Z,19.40
2018-12-26T11:40:36.989Z,19.50
2018-12-26T11:43:05.471Z,20.00
2018-12-26T11:45:33.941Z,20.27
2018-12-26T11:48:02.442Z,21.93
2018-12-26T11:50:30.855Z,22.17
2018-12-26T11:52:59.385Z,22.30
2018-12-26T11:55:27.803Z,22.67
2018-12-26T11:57:56.222Z,24.07
2018-12-26T12:00:24.678Z,24.47
2018-12-26T12:02:53.519Z,24.53
2018-12-26T12:05:22.210Z,24.37
2018-12-26T12:07:50.812Z,25.73
2018-12-26T12:10:19.290Z,25.30
2018-12-26T12:12:47.729Z,24.70
2018-12-26T12:15:16.170Z,25.90
2018-12-26T12:17:44.663Z,26.30
2018-12-26T12:20:13.206Z,25.53
2018-12-26T12:22:41.755Z,25.43
2018-12-26T12:25:10.195Z,26.33
2018-12-26T12:27:38.738Z,26.50
2018-12-26T12:30:07.793Z,25.30
2018-12-26T12:32:36.233Z,28.07
2018-12-26T12:35:05.613Z,25.37
2018-12-26T12:37:34.124Z,27.13
2018-12-26T12:40:02.622Z,26.67
2018-12-26T12:42:31.381Z,26.13
2018-12-26T12:44:59.825Z,27.57
2018-12-26T12:47:28.329Z,27.03
2018-12-26T12:49:56.767Z,30.00
2018-12-26T12:52:25.228Z,29.80
2018-12-26T12:54:53.643Z,30.27
2018-12-26T12:57:22.073Z,27.33
2018-12-26T12:59:50.513Z,28.17
2018-12-26T13:02:19.122Z,26.67
2018-12-26T13:04:47.650Z,28.43
2018-12-26T13:07:16.071Z,27.73
2018-12-26T13:09:44.581Z,29.20
2018-12-26T13:12:13.008Z,28.63
2018-12-26T13:14:41.529Z,28.87
2018-12-26T13:17:09.971Z,27.17
2018-12-26T13:19:38.394Z,27.50
2018-12-26T13:22:06.837Z,27.37
2018-12-26T13:24:35.930Z,28.67
2018-12-26T13:27:04.362Z,25.90
2018-12-26T13:29:32.803Z,25.37
2018-12-26T13:32:01.254Z,26.23
2018-12-26T13:34:29.714Z,25.43
2018-12-26T13:36:58.202Z,25.43
2018-12-26T13:39:26.633Z,24.60
2018-12-26T13:41:55.134Z,25.43
2018-12-26T13:44:23.571Z,24.03
2018-12-26T13:46:51.992Z,23.67
2018-12-26T13:49:20.448Z,24.50
2018-12-26T13:51:49.810Z,26.80
2018-12-26T13:54:18.265Z,25.30
2018-12-26T13:56:46.690Z,27.03
2018-12-26T13:59:15.147Z,25.87
2018-12-26T14:01:43.630Z,26.27
2018-12-26T14:04:12.044Z,25.13
2018-12-26T14:06:40.467Z,24.80
2018-12-26T14:09:09.421Z,24.70
2018-12-26T14:11:37.867Z,23.07
2018-12-26T14:14:06.344Z,24.93
2018-12-26T14:16:34.905Z,24.53
2018-12-26T14:19:03.336Z,23.53
2018-12-26T14:21:31.862Z,24.47
2018-12-26T14:24:00.832Z,24.80
2018-12-26T14:26:29.314Z,25.27
2018-12-26T14:28:57.784Z,23.20
2018-12-26T14:31:26.254Z,25.33
2018-12-26T14:33:54.767Z,26.27
2018-12-26T14:36:23.216Z,26.03
2018-12-26T14:38:51.692Z,24.87
2018-12-26T14:41:21.862Z,23.73
2018-12-26T14:43:50.418Z,23.07
2018-12-26T14:46:18.845Z,23.03
2018-12-26T14:48:47.346Z,23.17
2018-12-26T14:51:15.763Z,23.10
2018-12-26T14:53:44.203Z,23.87
2018-12-26T14:56:12.710Z,22.90
2018-12-26T14:58:41.127Z,23.47
2018-12-26T15:01:09.546Z,22.80
2018-12-26T15:03:38.179Z,25.23
2018-12-26T15:06:06.654Z,26.87
2018-12-26T15:08:35.099Z,25.47
2018-12-26T15:11:04.694Z,26.67
2018-12-26T15:13:33.524Z,25.70
2018-12-26T15:16:03.859Z,27.97
2018-12-26T15:18:32.444Z,27.07
2018-12-26T15:21:00.908Z,29.93
2018-12-26T15:23:29.342Z,29.43
2018-12-26T15:25:57.778Z,29.00
2018-12-26T15:28:26.214Z,27.97
2018-12-26T15:30:54.759Z,28.60
2018-12-26T15:33:23.222Z,30.23
2018-12-26T15:35:53.299Z,30.10
2018-12-26T15:38:21.935Z,30.57
2018-12-26T15:40:53.808Z,30.13
2018-12-26T15:43:22.877Z,29.53
2018-12-26T15:45:51.359Z,31.33
2018-12-26T15:48:19.985Z,28.90
2018-12-26T15:50:48.383Z,30.47
2018-12-26T15:53:16.857Z,31.43
2018-12-26T15:55:46.985Z,28.63
2018-12-26T15:58:15.475Z,31.33
2018-12-26T16:00:44.136Z,30.00
2018-12-26T16:03:12.773Z,31.00
2018-12-26T16:05:41.270Z,30.43
2018-12-26T16:08:09.903Z,30.80
2018-12-26T16:10:38.461Z,30.07
2018-12-26T16:13:06.906Z,32.27
2018-12-26T16:15:35.462Z,29.97
2018-12-26T16:18:05.759Z,32.23
2018-12-26T16:20:34.207Z,31.43
2018-12-26T16:23:02.702Z,32.23
2018-12-26T16:25:31.265Z,32.87
2018-12-26T16:27:59.788Z,31.40
2018-12-26T16:30:28.881Z,31.00
2018-12-26T16:32:57.415Z,30.10
2018-12-26T16:35:25.935Z,32.30
2018-12-26T16:38:01.496Z,30.43
2018-12-26T16:40:24.687Z,31.00
2018-12-26T16:42:53.188Z,30.43
2018-12-26T16:45:21.615Z,33.50
2018-12-26T16:47:50.049Z,32.47
2018-12-26T16:50:26.760Z,31.63
2018-12-26T16:52:48.649Z,30.53
2018-12-26T16:55:17.081Z,29.63
2018-12-26T16:57:45.843Z,30.60
2018-12-26T17:00:15.098Z,31.83
2018-12-26T17:02:43.834Z,32.97
2018-12-26T17:05:12.288Z,29.17
2018-12-26T17:07:40.783Z,30.70
2018-12-26T17:10:13.380Z,31.17
2018-12-26T17:12:41.852Z,28.80
2018-12-26T17:15:10.315Z,30.13
2018-12-26T17:17:38.743Z,30.23
2018-12-26T17:20:08.343Z,31.13
2018-12-26T17:22:36.754Z,31.33
2018-12-26T17:25:05.746Z,32.70
2018-12-26T17:27:34.209Z,33.97
2018-12-26T17:30:02.637Z,33.73
2018-12-26T17:32:31.073Z,36.30
2018-12-26T17:34:59.528Z,35.00
2018-12-26T17:37:27.936Z,33.53
2018-12-26T17:39:56.370Z,35.57
2018-12-26T17:42:24.820Z,36.50
2018-12-26T17:44:53.226Z,34.53
2018-12-26T17:47:21.665Z,35.37
2018-12-26T17:49:50.124Z,34.23
2018-12-26T17:52:18.682Z,35.63
2018-12-26T17:54:48.978Z,35.23
2018-12-26T17:57:17.481Z,33.43
2018-12-26T17:59:51.577Z,35.53
2018-12-26T18:02:23.073Z,32.67
2018-12-26T18:04:51.566Z,35.37
2018-12-26T18:07:20.010Z,36.17
2018-12-26T18:09:48.456Z,34.23
2018-12-26T18:12:16.977Z,33.43
2018-12-26T18:14:45.478Z,35.03
2018-12-26T18:17:13.922Z,36.87
2018-12-26T18:19:42.354Z,34.30
2018-12-26T18:22:10.795Z,33.67
2018-12-26T18:24:39.218Z,35.37
2018-12-26T18:27:07.670Z,33.67
2018-12-26T18:29:36.164Z,33.17
2018-12-26T18:32:04.623Z,33.87
2018-12-26T18:34:33.063Z,32.07
2018-12-26T18:37:01.560Z,32.90
2018-12-26T18:39:30.025Z,32.30
2018-12-26T18:41:58.449Z,32.20
2018-12-26T18:44:26.870Z,32.30
2018-12-26T18:46:55.325Z,33.23
2018-12-26T18:49:23.743Z,34.10
2018-12-26T18:51:52.326Z,34.73
2018-12-26T18:54:20.832Z,34.20
2018-12-26T18:56:49.250Z,32.90
2018-12-26T18:59:17.723Z,33.83
2018-12-26T19:01:46.175Z,33.40
2018-12-26T19:04:14.606Z,33.27
2018-12-26T19:06:43.034Z,31.20
2018-12-26T19:09:11.554Z,33.67
2018-12-26T19:11:40.459Z,32.13
2018-12-26T19:14:08.903Z,32.60
2018-12-26T19:16:37.416Z,31.27
2018-12-26T19:19:05.870Z,32.47
2018-12-26T19:21:34.307Z,31.47
2018-12-26T19:24:02.795Z,30.80
2018-12-26T19:26:31.316Z,31.13
2018-12-26T19:28:59.754Z,31.20
2018-12-26T19:31:28.277Z,29.43
2018-12-26T19:33:56.699Z,28.93
2018-12-26T19:36:25.185Z,30.30
2018-12-26T19:38:55.079Z,30.13
2018-12-26T19:41:23.491Z,30.37
2018-12-26T19:43:52.013Z,29.03
2018-12-26T19:46:20.504Z,28.47
2018-12-26T19:48:48.941Z,28.07
2018-12-26T19:51:17.410Z,27.27
2018-12-26T19:53:45.836Z,25.10
2018-12-26T19:56:14.243Z,26.40
2018-12-26T19:58:42.705Z,25.53
2018-12-26T20:01:12.345Z,25.60
2018-12-26T20:03:40.748Z,26.30
2018-12-26T20:06:09.212Z,24.80
2018-12-26T20:08:37.706Z,24.63
2018-12-26T20:11:06.175Z,23.47
2018-12-26T20:13:34.624Z,24.57
2018-12-26T20:16:03.120Z,23.37
2018-12-26T20:18:31.563Z,21.43
2018-12-26T20:21:00.002Z,21.70
2018-12-26T20:23:28.521Z,21.50
2018-12-26T20:25:56.976Z,20.53
2018-12-26T20:28:25.433Z,21.40
2018-12-26T20:30:53.867Z,21.80
2018-12-26T20:33:22.324Z,21.13
2018-12-26T20:35:52.524Z,20.43
2018-12-26T20:38:20.946Z,19.50
2018-12-26T20:40:49.376Z,20.73
2018-12-26T20:43:19.330Z,20.47
2018-12-26T20:45:47.872Z,20.60
2018-12-26T20:48:16.305Z,20.37
2018-12-26T20:50:44.747Z,20.30
2018-12-26T20:53:13.231Z,19.83
2018-12-26T20:55:41.673Z,18.77
2018-12-26T20:58:10.088Z,18.67
2018-12-26T21:00:38.499Z,19.07
2018-12-26T21:03:06.965Z,18.70
2018-12-26T21:05:35.375Z,19.60
2018-12-26T21:08:03.816Z,19.77
2018-12-26T21:10:32.274Z,18.90
2018-12-26T21:13:00.764Z,20.00
2018-12-26T21:15:29.245Z,18.60
2018-12-26T21:17:57.850Z,19.17
2018-12-26T21:20:26.299Z,19.00
2018-12-26T21:22:54.729Z,18.23
2018-12-26T21:25:23.167Z,19.03
2018-12-26T21:27:51.634Z,18.63
2018-12-26T21:30:20.118Z,19.40
2018-12-26T21:32:48.630Z,19.80
2018-12-26T21:35:17.154Z,19.80
2018-12-26T21:37:45.591Z,20.40
2018-12-26T21:40:14.014Z,19.47
2018-12-26T21:42:42.451Z,18.67
2018-12-26T21:45:10.910Z,19.77
2018-12-26T21:47:39.336Z,18.93
2018-12-26T21:50:10.536Z,19.73
2018-12-26T21:52:39.033Z,19.30
2018-12-26T21:55:07.423Z,20.23
2018-12-26T21:57:35.854Z,21.93
2018-12-26T22:00:04.726Z,20.57
2018-12-26T22:02:33.144Z,20.00
2018-12-26T22:05:01.601Z,20.57
2018-12-26T22:07:30.111Z,20.57
2018-12-26T22:09:58.543Z,20.50
2018-12-26T22:12:26.994Z,21.60
2018-12-26T22:14:55.526Z,22.60
2018-12-26T22:17:23.993Z,21.97
2018-12-26T22:19:52.480Z,31.55
2018-12-26T22:22:24.189Z,25.13
2018-12-26T22:24:53.120Z,24.93
2018-12-26T22:27:21.687Z,22.13
2018-12-26T22:29:50.167Z,24.97
2018-12-26T22:32:18.647Z,24.57
2018-12-26T22:34:48.312Z,24.10
2018-12-26T22:37:16.744Z,22.30
2018-12-26T22:39:45.169Z,24.10
2018-12-26T22:42:13.614Z,23.90
2018-12-26T22:44:42.073Z,22.13
2018-12-26T22:47:10.496Z,23.20
2018-12-26T22:49:38.981Z,21.80
2018-12-26T22:52:07.903Z,24.33
2018-12-26T22:54:36.331Z,23.50
2018-12-26T22:57:04.780Z,24.47
2018-12-26T22:59:33.233Z,21.70
2018-12-26T23:02:01.737Z,23.10
2018-12-26T23:04:30.175Z,24.23
2018-12-26T23:07:07.295Z,23.80
2018-12-26T23:09:36.502Z,25.30
2018-12-26T23:12:07.878Z,23.17
2018-12-26T23:14:36.307Z,23.30
2018-12-26T23:17:04.808Z,23.43
2018-12-26T23:19:33.225Z,23.17
2018-12-26T23:22:01.778Z,24.30
2018-12-26T23:24:30.271Z,24.73
2018-12-26T23:26:58.679Z,23.43
2018-12-26T23:29:27.179Z,23.50
2018-12-26T23:31:55.646Z,24.23
2018-12-26T23:34:24.061Z,23.77
2018-12-26T23:36:52.533Z,22.77
2018-12-26T23:39:20.976Z,23.90
2018-12-26T23:41:49.476Z,24.47
2018-12-26T23:44:17.968Z,24.43
2018-12-26T23:46:46.475Z,23.97
2018-12-26T23:49:14.936Z,23.20
2018-12-26T23:51:43.462Z,24.43
2018-12-26T23:54:11.918Z,24.97
2018-12-26T23:56:40.356Z,23.93
2018-12-26T23:59:08.778Z,23.10
